Time;durP1;ratioP1;P1;durP2;ratioP2;P2;SDS_P1;SDS_P2;PMS_P1;PMS_P2;Temp;Humidity;BMP_temperature;BMP_pressure;BME280_temperature;BME280_humidity;BME280_pressure;Samples;Min_cycle;Max_cycle;Signal;HPM_P1;HPM_P2
2021/12/04 00:01:24;;;;;;;1.50;1.40;;;7.10;96.20;;;;;;4982460;28;20479;-90
2021/12/04 00:03:53;;;;;;;2.33;1.48;;;7.10;96.20;;;;;;4961366;28;20243;-90
2021/12/04 00:06:24;;;;;;;1.20;1.10;;;7.10;96.20;;;;;;4962620;28;20491;-90
2021/12/04 00:08:50;;;;;;;1.40;1.30;;;7.10;96.30;;;;;;4977406;28;20015;-90
2021/12/04 00:11:19;;;;;;;1.30;1.20;;;7.00;96.20;;;;;;4963527;28;20038;-91
2021/12/04 00:13:46;;;;;;;1.20;1.10;;;7.10;96.30;;;;;;4967714;28;20150;-90
2021/12/04 00:16:12;;;;;;;1.42;1.33;;;7.10;96.30;;;;;;4964228;28;20054;-92
2021/12/04 00:18:40;;;;;;;1.30;1.20;;;7.00;96.30;;;;;;4940652;28;20136;-90
2021/12/04 00:21:06;;;;;;;1.38;1.17;;;7.10;96.30;;;;;;4962024;28;20033;-91
2021/12/04 00:23:32;;;;;;;1.50;1.30;;;7.10;96.30;;;;;;4957783;28;20042;-91
2021/12/04 00:25:58;;;;;;;1.38;1.27;;;7.10;96.30;;;;;;4962357;28;20031;-90
2021/12/04 00:28:23;;;;;;;1.80;1.38;;;7.10;96.30;;;;;;4971099;28;20089;-90
2021/12/04 00:30:50;;;;;;;1.35;1.10;;;7.10;96.30;;;;;;4953676;28;20256;-90
2021/12/04 00:33:19;;;;;;;1.30;1.20;;;7.10;96.30;;;;;;4964847;28;20023;-91
2021/12/04 00:35:53;;;;;;;1.40;1.30;;;7.10;96.30;;;;;;4944084;28;20246;-90
2021/12/04 00:51:32;;;;;;;1.73;1.35;;;7.10;96.10;;;;;;4954679;28;21481;-91
2021/12/04 00:53:57;;;;;;;1.42;1.33;;;7.00;96.10;;;;;;4955925;28;20456;-91
2021/12/04 00:56:24;;;;;;;1.50;1.40;;;7.10;96.20;;;;;;4975267;28;20026;-90
2021/12/04 00:58:50;;;;;;;1.35;1.25;;;7.10;96.30;;;;;;4945144;28;20390;-90
2021/12/04 01:01:17;;;;;;;1.30;1.20;;;7.10;96.40;;;;;;4968258;28;20530;-89
2021/12/04 01:03:43;;;;;;;1.35;1.25;;;7.10;96.40;;;;;;4956796;28;20226;-89
2021/12/04 01:06:09;;;;;;;1.42;1.30;;;7.10;96.50;;;;;;4963737;28;20049;-89
2021/12/04 01:08:34;;;;;;;1.20;1.10;;;7.10;96.50;;;;;;4963602;28;20281;-90
2021/12/04 01:11:02;;;;;;;1.63;1.52;;;7.10;96.50;;;;;;4954208;28;20030;-90
2021/12/04 01:13:29;;;;;;;1.52;1.42;;;7.20;96.60;;;;;;4963212;28;20085;-90
2021/12/04 01:15:55;;;;;;;1.40;1.30;;;7.20;96.60;;;;;;4967514;28;20335;-90
2021/12/04 01:18:20;;;;;;;1.40;1.30;;;7.20;96.50;;;;;;4952803;28;20049;-89
2021/12/04 01:20:46;;;;;;;1.38;1.27;;;7.20;96.50;;;;;;4945714;28;20060;-89
2021/12/04 01:23:12;;;;;;;1.30;1.20;;;7.20;96.50;;;;;;4953391;28;20117;-89
2021/12/04 01:25:39;;;;;;;1.50;1.35;;;7.20;96.50;;;;;;4957253;28;20033;-89
2021/12/04 01:28:05;;;;;;;1.48;1.38;;;7.30;96.50;;;;;;4961636;28;20141;-90
2021/12/04 01:30:31;;;;;;;1.58;1.35;;;7.30;96.50;;;;;;4945172;28;20125;-90
2021/12/04 01:32:57;;;;;;;1.20;1.08;;;7.30;96.40;;;;;;4977470;28;20420;-89
2021/12/04 01:35:23;;;;;;;1.70;1.60;;;7.30;96.40;;;;;;4960404;28;20084;-89
2021/12/04 01:37:49;;;;;;;1.40;1.30;;;7.30;96.40;;;;;;4970804;28;20323;-89
2021/12/04 01:40:15;;;;;;;1.52;1.40;;;7.30;96.40;;;;;;4978428;28;20125;-89
2021/12/04 01:42:40;;;;;;;1.25;1.17;;;7.40;96.40;;;;;;4973132;28;20029;-89
2021/12/04 01:45:07;;;;;;;1.58;1.30;;;7.40;96.30;;;;;;4963018;28;20056;-89
2021/12/04 01:47:33;;;;;;;1.63;1.52;;;7.30;96.30;;;;;;4949594;28;20044;-90
2021/12/04 01:50:01;;;;;;;1.33;1.23;;;7.40;96.30;;;;;;4969555;28;20026;-89
2021/12/04 01:52:28;;;;;;;1.30;1.20;;;7.40;96.30;;;;;;4945539;28;20026;-89
2021/12/04 01:54:54;;;;;;;1.38;1.27;;;7.40;96.30;;;;;;4976319;28;20018;-90
2021/12/04 01:57:21;;;;;;;2.13;1.45;;;7.40;96.40;;;;;;4947541;28;20038;-89
2021/12/04 01:59:47;;;;;;;1.40;1.30;;;7.40;96.40;;;;;;4969648;28;20033;-89
2021/12/04 02:02:12;;;;;;;1.45;1.35;;;7.40;96.40;;;;;;4956057;28;20495;-91
2021/12/04 02:04:38;;;;;;;1.50;1.40;;;7.40;96.40;;;;;;4965513;28;20359;-91
2021/12/04 02:07:04;;;;;;;1.60;1.50;;;7.40;96.40;;;;;;4960698;28;20038;-91
2021/12/04 02:09:34;;;;;;;1.15;1.08;;;7.40;96.40;;;;;;4943024;28;21059;-91
2021/12/04 02:12:03;;;;;;;1.40;1.30;;;7.40;96.40;;;;;;4960419;28;20403;-91
2021/12/04 02:14:30;;;;;;;1.40;1.30;;;7.40;96.50;;;;;;4973822;28;20023;-91
2021/12/04 02:16:55;;;;;;;1.50;1.40;;;7.40;96.40;;;;;;4956546;28;20050;-91
2021/12/04 02:19:21;;;;;;;1.60;1.50;;;7.40;96.40;;;;;;4959529;28;20339;-91
2021/12/04 02:21:47;;;;;;;1.60;1.42;;;7.50;96.40;;;;;;4956547;28;20133;-91
2021/12/04 02:24:13;;;;;;;1.50;1.40;;;7.50;96.40;;;;;;4939150;28;20312;-91
2021/12/04 02:26:39;;;;;;;1.80;1.70;;;7.50;96.40;;;;;;4956882;28;20030;-91
2021/12/04 02:29:04;;;;;;;1.60;1.50;;;7.50;96.40;;;;;;4968790;28;20503;-91
2021/12/04 02:31:30;;;;;;;1.42;1.33;;;7.50;96.40;;;;;;4969325;28;20499;-91
2021/12/04 02:33:56;;;;;;;1.38;1.27;;;7.50;96.40;;;;;;4959446;28;20783;-91
2021/12/04 02:36:21;;;;;;;1.65;1.42;;;7.50;96.40;;;;;;4967101;28;20026;-91
2021/12/04 02:38:51;;;;;;;1.60;1.50;;;7.50;96.40;;;;;;4964987;28;20260;-91
2021/12/04 02:41:21;;;;;;;1.40;1.30;;;7.50;96.30;;;;;;4974408;28;20368;-91
2021/12/04 02:43:48;;;;;;;2.00;1.80;;;7.50;96.40;;;;;;4974400;28;20229;-91
2021/12/04 02:46:15;;;;;;;1.63;1.52;;;7.60;96.40;;;;;;4979039;28;20038;-91
2021/12/04 02:48:42;;;;;;;2.20;2.00;;;7.50;96.40;;;;;;4946154;28;20014;-91
2021/12/04 02:51:09;;;;;;;1.55;1.45;;;7.50;96.40;;;;;;4980968;28;20019;-91
2021/12/04 02:53:35;;;;;;;1.80;1.70;;;7.50;96.40;;;;;;4972832;28;20030;-91
2021/12/04 02:56:00;;;;;;;2.03;1.73;;;7.50;96.40;;;;;;4960125;28;20019;-91
2021/12/04 02:58:26;;;;;;;1.70;1.60;;;7.50;96.40;;;;;;4974969;28;20117;-91
2021/12/04 03:00:52;;;;;;;2.05;1.77;;;7.50;96.40;;;;;;4977094;28;20462;-91
2021/12/04 03:03:19;;;;;;;1.70;1.60;;;7.50;96.30;;;;;;4955753;28;20049;-91
2021/12/04 03:05:49;;;;;;;1.88;1.77;;;7.60;96.40;;;;;;4951053;28;20264;-91
2021/12/04 03:08:16;;;;;;;1.77;1.67;;;7.60;96.70;;;;;;4949535;28;20134;-91
2021/12/04 03:10:42;;;;;;;1.95;1.75;;;7.60;96.40;;;;;;4944549;28;20139;-91
2021/12/04 03:13:09;;;;;;;1.70;1.60;;;7.50;96.30;;;;;;4976566;28;20041;-91
2021/12/04 03:15:38;;;;;;;1.90;1.80;;;7.60;96.40;;;;;;4957349;28;20422;-91
2021/12/04 03:18:04;;;;;;;2.25;2.05;;;7.60;96.40;;;;;;4976937;28;20057;-91
2021/12/04 03:20:31;;;;;;;2.22;1.75;;;7.60;96.30;;;;;;4960952;28;20041;-91
2021/12/04 03:23:01;;;;;;;2.22;2.03;;;7.60;96.30;;;;;;4993137;28;20065;-91
2021/12/04 03:25:26;;;;;;;1.80;1.60;;;7.60;96.30;;;;;;4944761;28;20118;-91
2021/12/04 03:27:52;;;;;;;2.55;1.90;;;7.60;96.30;;;;;;4949724;28;20018;-91
2021/12/04 03:41:07;;;;;;;2.20;2.00;;;7.60;96.20;;;;;;4983142;28;20252;-91
2021/12/04 03:43:33;;;;;;;2.20;2.00;;;7.60;96.20;;;;;;4963799;28;20148;-91
2021/12/04 03:46:02;;;;;;;2.25;2.05;;;7.50;96.20;;;;;;4978233;28;20126;-91
2021/12/04 03:50:59;;;;;;;2.30;2.10;;;7.60;96.20;;;;;;4977474;28;20023;-91
2021/12/04 03:53:24;;;;;;;2.40;2.10;;;7.60;96.20;;;;;;4952766;28;20118;-91
2021/12/04 03:55:51;;;;;;;2.08;1.88;;;7.60;96.20;;;;;;4954454;28;20669;-91
2021/12/04 03:58:18;;;;;;;2.38;2.17;;;7.60;96.20;;;;;;4948262;28;20039;-91
2021/12/04 04:00:44;;;;;;;2.08;1.88;;;7.60;96.20;;;;;;4977866;28;20026;-91
2021/12/04 04:03:10;;;;;;;2.15;1.95;;;7.60;96.20;;;;;;4964045;28;20073;-91
2021/12/04 04:05:36;;;;;;;2.28;2.00;;;7.60;96.20;;;;;;4986020;28;20499;-91
2021/12/04 04:08:03;;;;;;;2.28;2.08;;;7.60;96.20;;;;;;4963050;28;20113;-91
2021/12/04 04:10:28;;;;;;;2.10;1.70;;;7.60;96.20;;;;;;4971915;28;20061;-91
2021/12/04 04:12:54;;;;;;;2.40;2.20;;;7.60;96.20;;;;;;4963745;28;20173;-91
2021/12/04 04:15:22;;;;;;;2.10;1.90;;;7.60;96.20;;;;;;4978240;28;20821;-91
2021/12/04 04:17:48;;;;;;;1.98;1.88;;;7.60;96.30;;;;;;4964381;28;20657;-91
2021/12/04 04:20:17;;;;;;;2.22;2.03;;;7.60;96.30;;;;;;4960882;28;20038;-91
2021/12/04 04:22:45;;;;;;;1.77;1.67;;;7.60;96.30;;;;;;4970176;28;20155;-91
2021/12/04 04:25:12;;;;;;;2.03;1.75;;;7.60;96.30;;;;;;4979123;28;20057;-91
2021/12/04 04:27:39;;;;;;;1.88;1.75;;;7.60;96.30;;;;;;4952300;28;20437;-91
2021/12/04 04:30:10;;;;;;;2.30;2.10;;;7.60;96.30;;;;;;4949707;28;20530;-91
2021/12/04 04:32:36;;;;;;;2.20;2.00;;;7.60;96.30;;;;;;4968163;28;20354;-91
2021/12/04 04:35:09;;;;;;;2.28;1.90;;;7.60;96.30;;;;;;4962585;28;20033;-91
2021/12/04 04:38:05;;;;;;;1.98;1.77;;;7.70;96.40;;;;;;4987864;28;20022;-91
2021/12/04 05:21:04;;;;;;;2.17;1.98;;;7.60;96.20;;;;;;4991942;28;20077;-91
2021/12/04 05:23:34;;;;;;;2.10;1.90;;;7.60;96.20;;;;;;4947739;28;20033;-91
2021/12/04 05:26:03;;;;;;;1.98;1.75;;;7.70;96.20;;;;;;4973542;28;20154;-91
2021/12/04 05:28:29;;;;;;;2.55;2.17;;;7.60;96.20;;;;;;4958750;28;20045;-91
2021/12/04 05:30:56;;;;;;;2.40;2.17;;;7.60;96.30;;;;;;4952420;28;20494;-91
2021/12/04 05:33:22;;;;;;;2.60;2.40;;;7.60;96.30;;;;;;4953838;28;20034;-91
2021/12/04 05:35:48;;;;;;;2.60;2.22;;;7.70;96.30;;;;;;4955973;28;20439;-91
2021/12/04 05:38:18;;;;;;;2.30;2.05;;;7.60;96.20;;;;;;4973785;28;20418;-91
2021/12/04 05:40:45;;;;;;;2.03;1.83;;;7.70;96.30;;;;;;4944817;28;20598;-91
2021/12/04 05:43:12;;;;;;;3.40;2.10;;;7.70;96.30;;;;;;4946987;28;20717;-91
2021/12/04 05:45:44;;;;;;;2.85;2.35;;;7.70;96.30;;;;;;4970247;28;20023;-91
2021/12/04 05:51:04;;;;;;;2.72;2.33;;;7.70;96.30;;;;;;4976857;28;20101;-91
2021/12/04 05:53:42;;;;;;;2.13;1.90;;;7.70;96.30;;;;;;4949086;28;20031;-91
2021/12/04 05:56:08;;;;;;;2.33;1.98;;;7.70;96.30;;;;;;4946189;28;20034;-91
2021/12/04 05:58:34;;;;;;;2.55;2.35;;;7.70;96.40;;;;;;4977315;28;20487;-90
2021/12/04 06:01:03;;;;;;;2.83;2.20;;;7.70;96.40;;;;;;4952191;28;20038;-91
2021/12/04 06:03:29;;;;;;;2.75;2.35;;;7.70;96.40;;;;;;4939796;28;20133;-91
2021/12/04 06:05:56;;;;;;;4.50;3.03;;;7.80;96.40;;;;;;4974912;28;20105;-91
2021/12/04 06:08:22;;;;;;;2.22;2.03;;;7.80;96.40;;;;;;4963311;28;20490;-91
2021/12/04 06:10:49;;;;;;;2.80;2.30;;;7.80;96.40;;;;;;4971894;28;20105;-91
2021/12/04 06:13:15;;;;;;;2.60;2.40;;;7.80;96.40;;;;;;4967155;28;20030;-92
2021/12/04 06:15:41;;;;;;;2.53;2.10;;;7.80;96.40;;;;;;4970134;28;20088;-91
2021/12/04 06:18:08;;;;;;;2.45;2.05;;;7.80;96.30;;;;;;4962768;28;20327;-91
2021/12/04 06:23:19;;;;;;;2.95;2.28;;;7.80;96.30;;;;;;4963585;28;20571;-91
2021/12/04 06:25:45;;;;;;;3.55;2.85;;;7.80;96.30;;;;;;4954893;28;20002;-91
2021/12/04 06:28:11;;;;;;;3.47;2.63;;;7.80;96.30;;;;;;4961155;28;20034;-91
2021/12/04 06:30:39;;;;;;;3.42;1.95;;;7.80;96.30;;;;;;4993363;28;20330;-91
2021/12/04 06:33:07;;;;;;;2.25;1.98;;;7.80;96.20;;;;;;4945246;28;20135;-91
2021/12/04 06:35:36;;;;;;;2.28;2.08;;;7.80;96.20;;;;;;4970005;28;20159;-91
2021/12/04 06:38:02;;;;;;;3.85;2.40;;;7.80;96.20;;;;;;4974215;28;20038;-91
2021/12/04 06:40:28;;;;;;;2.90;2.40;;;7.80;96.20;;;;;;4936999;28;20034;-91
2021/12/04 06:42:57;;;;;;;3.13;2.58;;;7.80;96.20;;;;;;4972695;28;20030;-91
2021/12/04 06:45:24;;;;;;;3.30;2.55;;;7.80;96.10;;;;;;4948030;28;20058;-91
2021/12/04 06:47:58;;;;;;;2.80;2.58;;;7.80;96.20;;;;;;4961621;28;20065;-91
2021/12/04 06:50:36;;;;;;;2.78;2.58;;;7.80;96.20;;;;;;4955582;28;20319;-91
2021/12/04 06:53:12;;;;;;;2.75;2.25;;;7.80;96.10;;;;;;4957928;28;20208;-91
2021/12/04 06:55:41;;;;;;;2.65;2.33;;;7.80;96.10;;;;;;4936711;28;21426;-91
2021/12/04 06:58:06;;;;;;;2.85;2.40;;;7.80;96.10;;;;;;4971336;28;20110;-91
2021/12/04 07:00:33;;;;;;;2.40;2.20;;;7.80;96.10;;;;;;4978283;28;20733;-91
2021/12/04 07:02:58;;;;;;;2.55;2.28;;;7.80;96.10;;;;;;4947328;28;20120;-91
2021/12/04 07:05:24;;;;;;;2.28;2.08;;;7.80;96.10;;;;;;4973430;28;20633;-91
2021/12/04 07:07:50;;;;;;;2.70;2.50;;;7.70;96.10;;;;;;4979161;28;20030;-91
2021/12/04 07:10:15;;;;;;;3.20;2.40;;;7.70;96.10;;;;;;4950483;28;20034;-91
2021/12/04 07:12:41;;;;;;;3.30;2.55;;;7.80;96.10;;;;;;4966537;28;20084;-90
2021/12/04 07:15:10;;;;;;;2.83;2.53;;;7.80;96.00;;;;;;4978531;28;20022;-91
2021/12/04 07:17:36;;;;;;;2.53;2.00;;;7.70;96.00;;;;;;4977416;28;20396;-90
2021/12/04 07:20:04;;;;;;;2.28;2.08;;;7.70;96.00;;;;;;4963833;28;20026;-91
2021/12/04 07:22:30;;;;;;;2.45;2.25;;;7.70;96.10;;;;;;4956779;28;20572;-91
2021/12/04 07:24:56;;;;;;;2.45;2.25;;;7.70;96.10;;;;;;4989682;28;20034;-91
2021/12/04 07:27:22;;;;;;;3.03;2.33;;;7.70;96.10;;;;;;4955484;28;20745;-91
2021/12/04 07:29:47;;;;;;;2.75;2.10;;;7.70;96.10;;;;;;4978006;28;20324;-90
2021/12/04 07:32:13;;;;;;;2.78;2.28;;;7.70;96.10;;;;;;4955094;28;20064;-91
2021/12/04 07:34:39;;;;;;;2.42;2.20;;;7.60;96.10;;;;;;4970086;28;20263;-91
2021/12/04 07:37:04;;;;;;;2.45;2.25;;;7.70;96.20;;;;;;4965518;28;20041;-90
2021/12/04 07:39:30;;;;;;;2.50;2.30;;;7.70;96.10;;;;;;4949174;28;20026;-90
2021/12/04 07:41:55;;;;;;;2.53;2.33;;;7.70;96.10;;;;;;4949889;28;20061;-90
2021/12/04 07:44:21;;;;;;;2.15;1.95;;;7.70;96.10;;;;;;4966088;28;20031;-90
2021/12/04 07:46:47;;;;;;;2.47;2.28;;;7.70;96.10;;;;;;4968655;28;20026;-90
2021/12/04 07:49:13;;;;;;;2.50;2.30;;;7.70;96.10;;;;;;4966690;28;20030;-90
2021/12/04 07:51:38;;;;;;;2.47;2.13;;;7.70;96.20;;;;;;4937642;28;20121;-90
2021/12/04 07:54:04;;;;;;;2.88;2.58;;;7.70;96.20;;;;;;4976988;28;20137;-91
2021/12/04 07:56:30;;;;;;;2.90;2.30;;;7.70;96.10;;;;;;4966791;28;20200;-91
2021/12/04 07:58:57;;;;;;;2.25;2.05;;;7.70;96.20;;;;;;4957861;28;20498;-90
2021/12/04 08:01:23;;;;;;;2.60;2.35;;;7.70;96.20;;;;;;4975664;28;20042;-90
2021/12/04 08:03:49;;;;;;;2.53;2.30;;;7.70;96.30;;;;;;4969853;28;20053;-90
2021/12/04 08:06:15;;;;;;;3.20;2.50;;;7.70;96.40;;;;;;4945142;28;20039;-91
2021/12/04 08:08:40;;;;;;;2.67;2.13;;;7.70;96.40;;;;;;4947953;28;20031;-90
2021/12/04 08:11:06;;;;;;;2.67;2.47;;;7.70;96.40;;;;;;4956812;28;20041;-90
2021/12/04 08:13:32;;;;;;;2.60;2.25;;;7.70;96.40;;;;;;4965384;28;20338;-90
2021/12/04 08:15:57;;;;;;;2.58;2.38;;;7.80;96.40;;;;;;4962901;28;20456;-90
2021/12/04 08:18:23;;;;;;;3.50;2.35;;;7.80;96.40;;;;;;4953410;28;20319;-90
2021/12/04 08:20:50;;;;;;;2.63;2.42;;;7.80;96.40;;;;;;4963312;28;20480;-90
2021/12/04 08:23:17;;;;;;;3.00;2.38;;;7.80;96.40;;;;;;4973044;28;20403;-90
2021/12/04 08:25:43;;;;;;;3.15;2.53;;;7.80;96.40;;;;;;4976220;28;20088;-90
2021/12/04 08:28:09;;;;;;;3.53;2.90;;;7.80;96.40;;;;;;4948907;28;20023;-90
2021/12/04 08:30:39;;;;;;;3.08;2.70;;;7.80;96.40;;;;;;4945664;28;20030;-91
2021/12/04 08:33:05;;;;;;;3.72;2.88;;;7.80;96.50;;;;;;4993689;28;20026;-91
2021/12/04 08:35:35;;;;;;;6.57;3.13;;;7.80;96.60;;;;;;4945608;28;20575;-90
2021/12/04 08:38:01;;;;;;;3.35;2.80;;;7.80;96.70;;;;;;4948980;28;20515;-90
2021/12/04 08:40:29;;;;;;;4.07;3.38;;;7.90;96.80;;;;;;4954945;28;20120;-90
2021/12/04 08:42:55;;;;;;;3.80;3.22;;;7.90;96.90;;;;;;4978399;28;20033;-90
2021/12/04 08:45:21;;;;;;;3.83;3.30;;;7.90;97.10;;;;;;4948315;28;20030;-90
2021/12/04 08:47:47;;;;;;;3.90;3.22;;;8.00;97.30;;;;;;4954071;28;20502;-90
2021/12/04 08:50:18;;;;;;;3.63;3.03;;;8.00;97.30;;;;;;4949937;28;20030;-91
2021/12/04 08:52:44;;;;;;;3.90;3.10;;;8.10;97.30;;;;;;4947539;28;20026;-90
2021/12/04 08:55:10;;;;;;;4.25;3.08;;;8.10;97.30;;;;;;4961847;28;20065;-90
2021/12/04 08:57:36;;;;;;;4.97;3.70;;;8.20;97.20;;;;;;4962724;28;20030;-90
2021/12/04 09:00:07;;;;;;;3.75;3.17;;;8.20;97.10;;;;;;4972294;28;20026;-90
2021/12/04 09:02:33;;;;;;;3.88;2.88;;;8.20;96.90;;;;;;4968383;28;20553;-90
2021/12/04 09:04:59;;;;;;;3.92;3.08;;;8.20;96.70;;;;;;4948217;28;21406;-90
2021/12/04 09:07:24;;;;;;;3.92;3.40;;;8.30;96.60;;;;;;4939673;28;20038;-90
2021/12/04 09:09:55;;;;;;;4.30;3.30;;;8.30;96.50;;;;;;4970253;28;20225;-90
2021/12/04 09:12:22;;;;;;;3.72;3.33;;;8.30;96.50;;;;;;4954595;28;20022;-90
2021/12/04 09:14:49;;;;;;;3.72;3.30;;;8.30;96.40;;;;;;4971956;28;20385;-91
2021/12/04 09:17:19;;;;;;;4.63;4.10;;;8.20;96.30;;;;;;4952754;28;20129;-90
2021/12/04 09:19:45;;;;;;;3.80;2.97;;;8.20;96.30;;;;;;4972902;28;20033;-91
2021/12/04 09:22:24;;;;;;;4.43;3.90;;;8.20;96.30;;;;;;4944724;28;20027;-91
2021/12/04 09:24:54;;;;;;;5.00;3.55;;;8.20;96.30;;;;;;4947799;28;20107;-91
2021/12/04 09:30:09;;;;;;;4.60;3.58;;;8.20;96.20;;;;;;4965471;28;20435;-91
2021/12/04 10:17:15;;;;;;;3.45;2.70;;;8.20;96.70;;;;;;4973861;28;20054;-91
2021/12/04 10:20:08;;;;;;;3.67;2.93;;;8.20;96.70;;;;;;4954175;28;20098;-91
2021/12/04 10:22:58;;;;;;;3.17;2.67;;;8.20;96.70;;;;;;4941285;28;20116;-91
2021/12/04 10:33:45;;;;;;;3.13;2.70;;;8.30;96.80;;;;;;4954108;28;21747;-91
2021/12/04 10:36:12;;;;;;;3.63;2.50;;;8.30;96.80;;;;;;4962794;28;20077;-91
2021/12/04 10:38:43;;;;;;;3.90;2.95;;;8.30;96.80;;;;;;4965751;28;20300;-91
2021/12/04 10:41:11;;;;;;;4.45;3.13;;;8.30;96.80;;;;;;4938879;28;20126;-91
2021/12/04 10:43:37;;;;;;;3.28;2.65;;;8.30;96.70;;;;;;4968285;28;21783;-91
2021/12/04 10:46:15;;;;;;;3.40;3.05;;;8.40;96.70;;;;;;4957681;28;20030;-91
2021/12/04 10:48:50;;;;;;;3.00;2.70;;;8.40;96.50;;;;;;4975308;28;20072;-91
2021/12/04 10:53:51;;;;;;;5.03;3.38;;;8.40;96.40;;;;;;4978814;28;20034;-90
2021/12/04 11:39:53;;;;;;;4.10;3.08;;;8.10;96.00;;;;;;4967583;28;19910;-92
2021/12/04 11:42:28;;;;;;;5.65;3.13;;;8.10;96.40;;;;;;4955148;28;20117;-92
2021/12/04 11:45:15;;;;;;;4.65;2.80;;;8.00;96.50;;;;;;4980235;28;20052;-91
2021/12/04 11:47:45;;;;;;;4.72;2.75;;;8.10;96.60;;;;;;4980509;28;20026;-92
2021/12/04 11:50:22;;;;;;;4.88;3.28;;;8.10;96.70;;;;;;4958508;28;20415;-91
2021/12/04 11:52:51;;;;;;;3.78;2.67;;;8.10;96.60;;;;;;4964884;28;20027;-91
2021/12/04 11:55:20;;;;;;;4.13;2.80;;;8.10;96.80;;;;;;4939217;28;20399;-92
2021/12/04 11:57:48;;;;;;;4.20;2.72;;;8.10;96.80;;;;;;4962876;28;20027;-93
2021/12/04 12:00:25;;;;;;;4.07;2.58;;;8.10;96.80;;;;;;4974182;28;20395;-92
2021/12/04 12:03:04;;;;;;;3.33;2.30;;;8.20;96.90;;;;;;4955241;28;20045;-93
2021/12/04 12:05:29;;;;;;;3.45;2.33;;;8.20;96.90;;;;;;4959038;28;20120;-93
2021/12/04 12:07:57;;;;;;;3.92;2.55;;;8.20;96.80;;;;;;4960358;28;20113;-91
2021/12/04 12:10:26;;;;;;;3.35;2.35;;;8.20;96.80;;;;;;4951097;28;20066;-93
2021/12/04 12:12:57;;;;;;;3.10;2.20;;;8.20;96.90;;;;;;4956031;28;20372;-92
2021/12/04 12:15:33;;;;;;;2.80;2.30;;;8.20;96.90;;;;;;4970810;28;20027;-93
2021/12/04 12:18:17;;;;;;;3.72;2.53;;;8.20;96.80;;;;;;4962611;28;20541;-92
2021/12/04 12:20:48;;;;;;;;;;;8.30;96.70;;;;;;4993771;28;20040;-91
2021/12/04 12:23:19;;;;;;;2.83;2.17;;;8.30;96.40;;;;;;4975242;28;20112;-92
2021/12/04 12:36:28;;;;;;;4.13;2.60;;;8.30;96.90;;;;;;4982145;28;20060;-92
2021/12/04 12:38:59;;;;;;;5.35;3.28;;;8.30;96.80;;;;;;4958942;28;20026;-92
2021/12/04 12:41:45;;;;;;;4.13;3.10;;;8.30;96.80;;;;;;4952315;28;20042;-92
2021/12/04 12:44:23;;;;;;;4.88;3.80;;;8.30;96.90;;;;;;4949855;28;20030;-92
2021/12/04 12:47:04;;;;;;;4.60;3.10;;;8.30;96.70;;;;;;4969773;28;20030;-92
2021/12/04 12:49:35;;;;;;;5.90;3.60;;;8.30;96.70;;;;;;4975670;28;20383;-90
2021/12/04 12:52:12;;;;;;;6.15;3.25;;;8.40;96.80;;;;;;4950285;28;20252;-91
2021/12/04 12:54:54;;;;;;;4.55;3.20;;;8.40;96.70;;;;;;4968459;28;20041;-92
2021/12/04 12:57:31;;;;;;;4.88;3.35;;;8.40;96.70;;;;;;4956051;28;20475;-92
2021/12/04 13:14:23;;;;;;;6.50;3.72;;;8.40;96.90;;;;;;4963083;28;20411;-92
2021/12/04 13:16:59;;;;;;;6.57;3.45;;;8.40;96.90;;;;;;4956562;28;20022;-91
2021/12/04 13:19:26;;;;;;;4.38;3.50;;;8.50;97.00;;;;;;4991824;28;20546;-92
2021/12/04 13:21:58;;;;;;;6.75;4.00;;;8.50;97.10;;;;;;4965022;28;20027;-92
2021/12/04 13:24:30;;;;;;;6.35;4.30;;;8.50;97.10;;;;;;4951594;28;20027;-92
2021/12/04 13:26:57;;;;;;;5.32;3.92;;;8.60;97.10;;;;;;4980279;28;20081;-92
2021/12/04 13:29:26;;;;;;;6.88;4.32;;;8.50;97.10;;;;;;4968373;28;20030;-92
2021/12/04 13:31:57;;;;;;;6.78;3.75;;;8.60;97.10;;;;;;4953784;28;20023;-92
2021/12/04 13:34:27;;;;;;;5.60;4.05;;;8.60;97.10;;;;;;4968909;28;20070;-91
2021/12/04 13:36:53;;;;;;;7.32;4.50;;;8.60;97.00;;;;;;4956747;28;20077;-92
2021/12/04 13:39:20;;;;;;;6.28;4.25;;;8.60;97.00;;;;;;4956270;28;20022;-92
2021/12/04 13:41:48;;;;;;;6.15;4.13;;;8.60;96.90;;;;;;4969626;28;20030;-92
2021/12/04 13:44:17;;;;;;;7.55;5.00;;;8.60;96.90;;;;;;4958333;28;20129;-92
2021/12/04 13:46:46;;;;;;;6.88;4.60;;;8.70;96.90;;;;;;4941084;28;20027;-92
2021/12/04 13:49:14;;;;;;;7.65;4.88;;;8.60;96.90;;;;;;4941779;28;20030;-90
2021/12/04 13:51:40;;;;;;;7.38;5.22;;;8.70;96.90;;;;;;4976741;28;20042;-90
2021/12/04 13:54:09;;;;;;;8.73;4.80;;;8.70;96.90;;;;;;4973682;28;20253;-92
2021/12/04 13:56:35;;;;;;;7.53;4.80;;;8.70;96.90;;;;;;4959753;28;20034;-92
2021/12/04 13:59:04;;;;;;;6.35;4.30;;;8.70;96.90;;;;;;4963765;28;20108;-93
2021/12/04 14:01:42;;;;;;;8.68;3.92;;;8.70;96.90;;;;;;4940748;28;20121;-92
2021/12/04 14:04:15;;;;;;;6.70;4.30;;;8.70;96.90;;;;;;4949616;28;20666;-89
2021/12/04 14:06:50;;;;;;;6.45;4.00;;;8.70;96.90;;;;;;4979701;28;20034;-92
2021/12/04 14:09:16;;;;;;;5.88;3.38;;;8.70;96.80;;;;;;4956888;28;20612;-91
2021/12/04 14:11:42;;;;;;;7.78;4.40;;;8.70;97.00;;;;;;4945682;28;20019;-90
2021/12/04 14:14:17;;;;;;;6.20;3.67;;;8.70;97.10;;;;;;4959182;28;20282;-92
2021/12/04 14:16:45;;;;;;;6.03;3.17;;;8.70;97.00;;;;;;4944645;28;20365;-92
2021/12/04 14:19:14;;;;;;;6.57;3.00;;;8.80;97.10;;;;;;4949942;28;20308;-92
2021/12/04 14:21:39;;;;;;;5.43;3.15;;;8.80;97.50;;;;;;4975618;28;20398;-92
2021/12/04 14:24:05;;;;;;;7.18;3.60;;;8.80;97.10;;;;;;4954421;28;20030;-92
2021/12/04 14:26:31;;;;;;;6.93;3.10;;;8.90;97.10;;;;;;4978768;28;20038;-92
2021/12/04 14:28:57;;;;;;;5.35;3.42;;;8.90;97.00;;;;;;4960556;28;20363;-92
2021/12/04 14:31:23;;;;;;;7.53;4.25;;;8.90;97.00;;;;;;4960537;28;20559;-90
2021/12/04 14:33:49;;;;;;;6.40;3.70;;;8.90;96.80;;;;;;4947018;28;20054;-91
2021/12/04 14:36:20;;;;;;;8.60;3.70;;;8.90;96.80;;;;;;4979899;28;20030;-92
2021/12/04 14:38:47;;;;;;;10.05;4.03;;;8.80;97.00;;;;;;4957160;28;20088;-89
2021/12/04 14:41:14;;;;;;;7.90;4.20;;;8.90;96.80;;;;;;4974350;28;20242;-92
2021/12/04 14:43:41;;;;;;;6.97;3.33;;;8.90;96.80;;;;;;4953029;28;20239;-91
2021/12/04 14:46:14;;;;;;;5.10;3.35;;;8.80;97.10;;;;;;4958839;28;20034;-92
2021/12/04 14:48:43;;;;;;;5.90;3.00;;;8.80;96.80;;;;;;4964687;28;20030;-91
2021/12/04 14:51:16;;;;;;;6.28;2.88;;;8.90;96.90;;;;;;4950839;28;20634;-90
2021/12/04 14:53:54;;;;;;;8.38;3.03;;;8.90;96.80;;;;;;4966426;28;20031;-90
2021/12/04 14:56:22;;;;;;;5.63;2.90;;;8.90;96.80;;;;;;4963358;28;20125;-92
2021/12/04 14:58:48;;;;;;;8.25;3.10;;;8.90;97.00;;;;;;4959279;28;20054;-91
2021/12/04 15:01:16;;;;;;;5.57;2.88;;;8.90;96.90;;;;;;4958203;28;20117;-91
2021/12/04 15:03:56;;;;;;;5.50;2.58;;;8.90;96.80;;;;;;4947628;28;20042;-91
2021/12/04 15:06:23;;;;;;;5.40;2.92;;;8.90;96.60;;;;;;4961481;28;20054;-89
2021/12/04 15:08:58;;;;;;;5.38;2.90;;;8.90;96.50;;;;;;4954080;28;20082;-92
2021/12/04 15:11:31;;;;;;;5.95;2.80;;;8.90;96.30;;;;;;4955454;28;20034;-91
2021/12/04 15:14:08;;;;;;;4.80;2.38;;;8.90;96.40;;;;;;4950681;28;20031;-91
2021/12/04 15:16:45;;;;;;;6.50;3.10;;;8.90;96.20;;;;;;4949435;28;20194;-90
2021/12/04 15:19:42;;;;;;;7.82;3.45;;;8.80;96.20;;;;;;4958877;28;20026;-91
2021/12/04 15:22:21;;;;;;;8.60;3.47;;;8.80;95.90;;;;;;4953775;28;20378;-89
2021/12/04 15:24:48;;;;;;;8.75;3.47;;;8.80;95.80;;;;;;4981826;28;20384;-89
2021/12/04 15:27:18;;;;;;;7.72;3.03;;;8.70;95.70;;;;;;4964646;28;20048;-91
2021/12/04 15:29:48;;;;;;;4.97;2.70;;;8.70;95.50;;;;;;4980641;28;20093;-90
2021/12/04 15:32:20;;;;;;;8.32;2.92;;;8.60;95.40;;;;;;4950720;28;20063;-89
2021/12/04 15:35:01;;;;;;;6.10;2.22;;;8.60;95.40;;;;;;4948311;28;20110;-91
2021/12/04 15:37:34;;;;;;;5.72;2.08;;;8.50;95.30;;;;;;4973219;28;20031;-90
2021/12/04 15:40:00;;;;;;;4.30;1.75;;;8.50;95.20;;;;;;4946492;28;20495;-91
2021/12/04 15:42:29;;;;;;;6.35;1.90;;;8.40;95.10;;;;;;4979015;28;20035;-88
2021/12/04 15:53:50;;;;;;;3.08;1.23;;;8.20;94.80;;;;;;4974235;28;20517;-90
2021/12/04 15:56:27;;;;;;;3.08;1.45;;;8.10;94.70;;;;;;4969345;28;20149;-91
2021/12/04 15:58:53;;;;;;;3.35;1.85;;;8.00;94.90;;;;;;4947269;28;20026;-91
2021/12/04 16:01:19;;;;;;;2.75;1.50;;;8.00;94.60;;;;;;4955334;28;20395;-91
2021/12/04 16:03:47;;;;;;;4.95;1.88;;;7.90;94.60;;;;;;4948612;28;20054;-91
2021/12/04 16:06:13;;;;;;;4.80;1.92;;;7.90;94.60;;;;;;4944083;28;20247;-91
2021/12/04 16:08:40;;;;;;;2.50;1.70;;;7.80;94.60;;;;;;4964339;28;20026;-91
2021/12/04 16:11:08;;;;;;;5.95;2.08;;;7.80;94.60;;;;;;4937681;28;20581;-91
2021/12/04 16:13:36;;;;;;;4.97;1.65;;;7.80;94.70;;;;;;4958348;28;20034;-91
2021/12/04 16:16:15;;;;;;;4.93;1.85;;;7.80;94.90;;;;;;4949019;28;20515;-90
2021/12/04 16:18:42;;;;;;;3.97;1.50;;;7.70;95.00;;;;;;4953455;28;20042;-91
2021/12/04 16:21:08;;;;;;;4.63;1.73;;;7.70;95.40;;;;;;4943010;28;20673;-91
2021/12/04 16:23:34;;;;;;;4.25;2.00;;;7.70;95.90;;;;;;4980124;28;20027;-90
2021/12/04 16:26:00;;;;;;;4.80;1.50;;;7.70;95.80;;;;;;4964110;28;20104;-90
2021/12/04 16:35:04;;;;;;;3.70;1.60;;;7.70;95.40;;;;;;4894100;28;20101;-91
2021/12/04 16:37:19;;;;;;;6.10;2.40;;;7.70;95.30;;;;;;4952356;28;20031;-91
2021/12/04 16:39:45;;;;;;;5.57;2.00;;;7.70;95.20;;;;;;4955228;28;20033;-90